Share

Overton, NE (68863)

Kelly (KLXN) Elev 2411 ft | 40.79 °N, 99.78 °W | Change Station

Current weather conditions updated 23 minutes ago

Clear
Clear
52 °F
Feels Like 52 °F
N
13
Wind Variable Wind from NNW
Sunrise 6:50 AM
Sunset 8:23 PM
Moon Waning Gibbous

Today is forecast to be Cooler than yesterday.

Pressure 30.09 in
Visibility 10.0 miles
Clouds Clear
Dew Point 35 °F
Humidity 52%
Rainfall 0.03 in
Snow Depth Not available.
UV 0 out of 16
Pollen 9.40 out of 12
Air Quality Not available.
Flu Activity Sporadic
METAR KLXN 211155Z AUTO 34011KT 10SM CLR 11/02 A3009 RMK AO2 60001 70001 T01090015 10158 20100

More Conditions Fewer Conditions

Pressure 30.09 in
Visibility 10.0 miles
Clouds Clear
Dew Point 35 °F
Humidity 52%
Rainfall 0.03 in
Snow Depth Not available.
UV 0 out of 16
Pollen 9.40 out of 12
Air Quality Not available.
Flu Activity Sporadic
METAR KLXN 211155Z AUTO 34011KT 10SM CLR 11/02 A3009 RMK AO2 60001 70001 T01090015 10158 20100

More Conditions Fewer Conditions

10-Day Weather Forecast

Almanac

Astronomy

Apr. 21, 2014 Rise Set
Actual Time 6:50 AM CDT 8:23 PM CDT
Civil Twilight 6:21 AM CDT 8:52 PM CDT
Nautical Twilight 5:46 AM CDT 9:27 PM CDT
Astronomical Twilight 5:09 AM CDT 10:04 PM CDT
Moon 1:55 AM CDT 12:18 PM CDT
Length of Visible Light 14h 31m
Length of Day
13h 33m
Tomorrow will be 2m 30s longer.
Waning Gibbous, 59% of the Moon is Illuminated
Today
Waning Gibbous
Apr 22
Last Quarter
Apr 29
New
May 6
First Quarter
May 14
Full

Today's Extremes

State Highs State Lows

Community

  • Snowy Robin
    Snowy Robin
  • Sun Pillar and Geese
    Sun Pillar and Geese
  • Showers on the Way
    Showers on the Way
  • Easter Morning Fog
    Easter Morning Fog
  • Easter Dance
    Easter Dance

WunderPhotos

Upload Photos

1,703,598 photos uploaded!

Nearby

Snow Depth

Station Depth Elevation
No new snow has been reported.

Coastal Water Temperatures

Place Temperature
No Stations Reporting

Earthquake Activity

City Distance Mag. Time & Date
No recent earthquake activity has been reported nearby.
Minimum magnitude displayed is 2.5.

Nearby Weather Stations

Station Location Temp. Windchill Dew Point Humidity Wind Precip. Elev Updated Type
MesoWest OVERT1 , Overton, NE 50 °F - - - North  at  - 0.00 in / hr 2303 ft 6:00 AM CDT MADIS
MesoWest LEXNG1 , Lexington, NE 49 °F 49 °F - - North  at  - 0.00 in / hr 2411 ft 6:00 AM CDT MADIS
MesoWest ODESS1 , Odessa, NE 49 °F 49 °F - - North  at  - 0.00 in / hr 2215 ft 6:00 AM CDT MADIS
Mallard Bay, Johnson Lake, NE 53.8 °F - 29 °F 39% North  at  12.0 mph 0.00 in / hr 2623 ft 7:18 AM CDT Rapid Fire
Regency, Kearney, NE 47.9 °F 44 °F 41 °F 77% North  at  8.6 mph 0.00 in / hr 2224 ft 7:18 AM CDT Rapid Fire

Show More Stations Show Fewer Stations

What do you think?

We're not finished. Please let us know what you like, what you don't like, and what you are still missing.